Jump to content


UNITED AIRLINES FLIGHT UA2220 FLOWN ON 09-15-2017 BY CAPTAIN JIM BOERMAN

Pilot StatsCaptain Jim Boerman (LDP136) • 4,616.9 total hours • 1,400 total flights [View Logbook]
FLIGHT DETAILS
StatusReceived and approved on 2017-09-15 at 12:09:49
Origin AirportLos Angeles Intl (KLAX) • Los Angeles, California, United States (126 feet MSL)
Filed Flight PlanFLIGHT PLANNER OFFLINE
Destination AirportWinnipeg Intl (CYWG) • Winnipeg, Manitoba, Canada (783 feet MSL)
Alternate AirportGimli Industrial Park (CYGM) • Gimli, Manitoba, Canada (755 feet MSL)
AirlineUnited Airlines
AircraftBoeing 737-700 | Winglets (73W / B737-700)
FS Aircraft UsedBoeing 737-724NGX United Airlines (Merger) Winglets
Cruising AltitudeFL350
Distance Flown1,338 nautical miles
Passengers Onboard98 passengers (72.06% full)
DEPARTURE DETAILS
Time Out06:10:52
Taxi Data142,818 lbs total with 26,493 lbs of fuel onboard
Takeoff Data06:24:56 (14 minutes after leaving gate/ramp) • 142,210 lbs total • 11° pitch at 153 knots
Departure METARKLAX 151153Z 29003KT 10SM FEW018 BKN042 18/16 A2989 RMK AO2 SLP120 T01830161 10189 20178 58003
ARRIVAL DETAILS
Landing Data10:22:16 • 126,587 lbs total • 7° pitch doing 115 knots at a rate of -105.35 feet/minute with 9,941 lbs of fuel onboard
Time In10:29:44 (7 minutes after landing)
Ramp Weight126,266 lbs total
Total Fuel Used16,552 lbs
Total Block Time03:18:44 (3.3 hours) while 22 minutes were spent on the ground
Arrival METARCYWG 151600Z 03012KT 15SM FEW024 OVC110 10/06 A3006 RMK SC1AC8 SC TR SLP188
MISCELLANEOUS DETAILS
LiveDISPATCH Version4.8.3.1
FS Version
FSUIPC Version5.10
OS VersionWindows 7 32-bit
Screen Resolution1920 x 1080
Pilot's CommentsNo Comments Reported
FLIGHT MAP